Date,TemperatureHighF,TemperatureAvgF,TemperatureLowF,DewpointHighF,DewpointAvgF,DewpointLowF,HumidityHigh,HumidityAvg,HumidityLow,PressureMaxIn,PressureMinIn,WindSpeedMaxMPH,WindSpeedAvgMPH,GustSpeedMaxMPH,PrecipitationSumIn
2013-1-1,28,20,6,23,11,-1,88,68,44,29.87,29.65,17,7,32,0.00
2013-1-2,14,6,0,2,-3,-9,77,64,51,30.06,29.86,17,7,33,0.00
2013-1-3,17,7,-1,2,-3,-9,71,62,51,30.14,30.00,13,5,28,0.00
2013-1-4,30,21,11,24,14,0,85,75,58,30.01,29.77,8,4,18,0.00
2013-1-5,30,24,13,24,14,5,83,64,45,30.32,29.76,17,6,42,0.00
2013-1-6,27,21,14,24,17,5,94,82,65,30.29,29.98,6,1,14,0.02
2013-1-7,22,17,12,21,11,2,95,78,58,30.46,30.02,7,3,17,0.01
2013-1-8,34,29,21,25,21,15,94,74,60,30.41,30.24,9,4,24,0.01
2013-1-9,37,33,29,34,28,23,94,82,73,30.46,29.90,8,4,22,0.01
2013-1-10,40,35,28,29,25,19,87,68,54,30.55,29.89,17,11,43,0.01
2013-1-11,33,28,23,22,18,16,79,67,51,30.58,30.33,11,4,23,0.01
2013-1-12,39,36,31,39,34,24,99,92,74,30.33,30.16,6,2,14,0.02
2013-1-13,44,39,36,44,39,36,100,99,99,30.21,29.99,8,3,16,0.02
2013-1-14,50,42,33,50,39,24,100,88,65,30.23,29.89,12,6,31,0.03
2013-1-15,34,31,26,25,22,17,78,70,63,30.35,30.22,7,2,15,0.01
2013-1-16,32,27,24,32,24,17,98,89,68,30.32,29.82,9,3,15,0.00
2013-1-17,33,24,8,32,19,-5,98,82,53,30.19,29.79,13,5,32,0.11
2013-1-18,13,7,0,-3,-7,-11,61,52,43,30.47,30.15,10,4,23,0.01
2013-1-19,36,25,11,27,16,-4,92,67,47,30.45,29.96,7,3,21,0.00
2013-1-20,43,36,20,36,26,6,94,70,44,29.96,29.47,15,6,33,0.04
2013-1-21,19,15,8,6,-1,-5,61,50,34,30.07,29.84,14,6,33,0.01
2013-1-22,14,8,4,3,-2,-16,81,63,39,30.05,29.84,14,4,29,0.00
2013-1-23,3,-1,-5,-13,-16,-18,57,49,38,30.11,30.04,14,8,33,0.00
2013-1-24,7,-1,-8,-9,-13,-17,65,55,39,30.13,29.96,15,9,32,0.00
2013-1-25,15,7,0,-1,-4,-11,72,59,46,30.24,30.13,13,6,32,0.00
2013-1-26,16,10,4,-3,-5,-9,66,51,36,30.15,30.03,13,6,25,0.00
2013-1-27,19,11,5,3,-1,-5,67,59,46,30.46,30.15,18,8,36,0.01
2013-1-28,26,16,7,16,1,-8,93,54,24,30.48,30.14,8,2,15,0.01
2013-1-29,33,26,18,27,21,16,92,84,69,30.28,30.14,5,2,10,0.01
2013-1-30,52,42,30,52,42,28,100,98,92,30.23,29.50,11,6,24,0.28
2013-1-31,52,37,28,52,28,10,99,73,52,29.50,28.99,15,7,31,0.73
2013-2-1,28,20,11,11,5,0,63,52,44,30.05,29.41,15,8,37,0.08
2013-2-2,22,15,7,12,3,-2,74,59,41,30.24,30.05,11,3,22,0.00
2013-2-3,24,20,17,16,15,13,94,81,64,30.13,29.73,7,4,17,0.00
2013-2-4,23,17,11,13,6,-9,83,62,38,29.87,29.65,18,8,37,0.00
2013-2-5,18,12,6,1,-7,-10,55,41,32,30.08,29.87,12,5,27,0.00
2013-2-6,30,20,12,21,9,-6,88,64,34,30.29,29.99,14,4,26,0.00
2013-2-7,12,7,2,-4,-10,-15,58,44,30,30.67,30.30,12,4,23,0.00
2013-2-8,13,7,2,11,1,-13,91,78,44,30.67,30.02,14,6,29,0.00
2013-2-9,13,10,6,11,7,3,91,89,81,30.15,29.77,23,14,45,0.01
2013-2-10,28,19,9,10,4,1,82,55,36,30.42,30.15,15,7,30,0.01
2013-2-11,38,30,23,38,22,2,99,77,37,30.40,29.62,10,4,16,0.14
2013-2-12,38,34,30,34,31,28,99,89,76,29.79,29.55,10,4,24,0.18
2013-2-13,39,34,31,28,24,20,81,67,51,29.83,29.76,10,5,23,0.01
2013-2-14,36,31,26,22,20,16,81,64,46,30.06,29.76,10,3,18,0.00
2013-2-15,42,36,29,36,30,18,97,81,59,30.06,29.96,12,3,21,0.00
2013-2-16,36,30,21,34,27,20,97,90,69,29.98,29.83,12,6,20,0.01
2013-2-17,21,18,16,20,13,6,94,81,64,29.83,29.13,23,15,53,0.01
2013-2-18,25,17,10,6,2,-2,64,51,40,30.04,29.38,23,15,43,0.00
2013-2-19,40,29,16,38,10,-2,98,52,17,30.15,29.70,15,6,23,0.15
2013-2-20,41,33,24,41,27,16,99,81,63,29.69,29.44,17,9,34,0.60
2013-2-21,29,23,17,26,16,8,89,76,63,30.19,29.62,14,8,27,0.02
2013-2-22,34,29,24,25,20,19,84,72,55,30.45,30.19,10,5,20,0.00
2013-2-23,30,27,23,28,24,19,97,90,78,30.42,30.12,10,4,16,0.00
2013-2-24,27,26,24,26,25,22,97,97,96,30.12,29.85,9,5,16,0.00
2013-2-25,33,27,22,28,24,21,96,87,70,30.29,29.94,8,4,17,0.14
2013-2-26,39,33,29,28,26,21,85,73,60,30.42,30.29,5,2,10,0.01
2013-2-27,35,31,28,30,27,22,97,87,69,30.34,29.77,20,10,33,0.01
2013-2-28,38,34,29,38,34,28,99,99,97,29.77,29.58,16,8,31,0.11
2013-3-1,30,29,28,30,29,28,99,98,98,29.70,29.57,0,0,0,0.05
2013-3-2,32,30,28,32,30,27,99,98,96,29.69,29.65,10,3,18,0.04
2013-3-3,36,33,31,36,33,31,99,99,98,29.66,29.54,8,4,18,0.13
2013-3-4,32,30,28,32,29,26,99,95,88,29.72,29.51,13,8,28,0.01
2013-3-5,38,33,31,38,33,31,99,99,99,30.18,29.72,9,5,18,0.14
2013-3-6,35,31,29,32,28,24,99,88,73,30.34,30.18,13,7,27,0.02
2013-3-7,34,30,28,25,24,23,83,76,67,30.30,30.16,14,9,28,0.01
2013-3-8,43,33,27,24,22,18,84,65,38,30.27,30.13,15,10,29,0.00
2013-3-9,42,33,26,24,23,21,85,67,42,30.44,30.25,11,6,23,0.00
2013-3-10,39,30,23,28,25,21,93,83,62,30.50,30.37,7,3,12,0.00
2013-3-11,41,36,30,37,33,28,98,91,79,30.38,30.22,10,5,21,0.00
2013-3-12,47,43,38,47,42,37,99,98,91,30.22,29.81,15,7,31,0.61
2013-3-13,47,41,35,47,39,28,100,91,72,29.82,29.70,14,6,30,0.83
2013-3-14,38,31,20,27,22,10,94,70,47,29.75,29.65,12,5,26,0.01
2013-3-15,31,22,13,19,9,5,77,57,37,29.80,29.67,12,6,26,0.00
2013-3-16,31,24,18,22,14,7,94,66,40,29.94,29.67,10,5,20,0.00
2013-3-17,25,20,14,10,4,-4,75,52,30,30.35,29.94,15,7,31,0.00
2013-3-18,31,21,11,16,0,-5,64,41,26,30.49,30.34,9,3,18,0.00
2013-3-19,26,23,20,23,19,13,95,85,58,30.37,29.72,16,7,28,0.00
2013-3-20,30,23,16,26,20,14,95,87,71,29.76,29.63,13,6,26,0.01
2013-3-21,37,29,22,24,18,12,88,67,38,29.81,29.66,7,4,16,0.01
2013-3-22,36,28,22,23,17,14,90,64,42,29.67,29.62,11,6,20,0.00
2013-3-23,37,30,22,24,19,15,79,66,49,29.67,29.49,16,9,33,0.00
2013-3-24,40,35,31,26,24,23,76,65,51,29.82,29.65,13,7,28,0.00
2013-3-25,41,35,29,30,27,25,93,73,56,29.82,29.65,8,5,19,0.00
2013-3-26,43,36,28,29,25,22,79,66,45,29.75,29.59,12,7,25,0.00
2013-3-27,37,35,33,36,32,27,98,87,71,29.91,29.73,11,6,20,0.15
2013-3-28,48,39,32,36,32,28,96,78,50,30.01,29.91,7,4,14,0.05
2013-3-29,49,43,38,36,32,30,84,68,51,30.04,29.98,10,6,21,0.01
2013-3-30,50,42,35,31,23,13,80,52,25,30.12,30.03,10,4,20,0.00
2013-3-31,50,41,32,36,19,-100,86,46,26,30.16,29.93,12,5,21,0.00
2013-4-1,47,38,31,41,36,24,98,91,75,29.92,29.55,15,6,28,0.43
2013-4-2,33,28,23,24,14,8,79,57,37,29.84,29.69,13,7,29,0.12
2013-4-3,36,29,25,19,14,9,79,53,40,30.04,29.81,20,10,34,0.00
2013-4-4,48,35,27,30,14,6,77,45,21,30.23,30.01,14,7,29,0.00
2013-4-5,53,41,34,32,27,20,81,60,32,30.02,29.69,12,5,25,0.00
2013-4-6,35,30,24,21,8,-1,66,42,22,30.41,29.82,19,9,38,0.00
2013-4-7,41,34,26,37,22,4,90,62,37,30.41,30.01,17,8,32,0.01
2013-4-8,54,46,38,39,34,30,94,68,44,30.20,29.95,12,6,22,0.01
2013-4-9,42,39,36,40,37,31,99,92,64,30.20,29.96,11,4,17,0.21
2013-4-10,52,43,37,45,39,35,99,86,64,30.04,29.94,5,2,13,0.08
2013-4-11,45,40,34,39,22,12,87,52,27,30.24,29.93,12,5,23,0.02
2013-4-12,35,31,30,31,21,12,98,68,45,30.32,29.97,13,3,18,0.10
2013-4-13,39,34,30,38,33,29,99,98,97,29.98,29.86,5,1,11,0.21
2013-4-14,46,39,36,44,37,31,99,92,72,30.22,29.96,11,3,27,0.02
2013-4-15,49,40,34,39,34,30,96,79,56,30.47,30.22,10,4,16,0.01
2013-4-16,50,43,37,45,39,35,98,85,63,30.48,29.99,13,7,26,0.04
2013-4-17,56,49,43,48,31,22,96,54,29,30.41,29.99,13,8,33,0.04
2013-4-18,46,41,36,37,24,15,78,52,34,30.54,30.23,10,6,21,0.00
2013-4-19,63,52,43,58,50,36,99,91,76,30.23,29.70,13,7,26,0.01
2013-4-20,57,50,40,57,42,25,99,78,43,30.17,29.61,12,6,29,0.39
2013-4-21,46,39,32,26,20,13,68,49,29,30.77,30.16,12,6,24,0.01
2013-4-22,46,38,32,30,20,11,87,49,27,30.88,30.73,13,5,23,0.00
2013-4-23,42,36,30,38,33,28,98,90,75,30.73,30.29,10,6,18,0.01
2013-4-24,54,45,39,51,44,38,99,97,90,30.30,29.83,10,5,18,0.15
2013-4-25,57,50,43,49,37,27,99,67,33,30.34,29.84,11,6,22,0.07
2013-4-26,58,47,39,32,29,25,66,51,30,30.50,30.34,9,4,15,0.04
2013-4-27,57,48,37,37,34,29,83,59,41,30.48,30.37,8,4,14,0.00
2013-4-28,63,53,44,37,32,-100,66,48,31,30.39,30.30,11,4,20,0.00
2013-4-29,62,53,45,44,37,31,86,58,34,30.33,30.28,10,4,19,0.00
2013-4-30,65,54,43,41,36,22,85,52,30,30.42,30.31,10,4,18,0.00
2013-5-1,70,58,48,35,27,16,46,31,23,30.50,30.42,10,3,22,0.00
2013-5-2,65,54,46,44,37,30,69,53,35,30.58,30.46,12,4,18,0.00
2013-5-3,65,51,40,45,40,34,87,69,43,30.62,30.44,9,4,17,0.00
2013-5-4,64,48,39,41,36,27,91,66,25,30.47,30.36,10,4,20,0.00
2013-5-5,63,49,39,41,36,32,89,64,35,30.40,30.31,11,4,19,0.00
2013-5-6,64,49,39,45,41,37,98,79,41,30.34,30.22,10,4,20,0.00
2013-5-7,72,55,42,53,46,39,99,78,32,30.24,30.16,10,3,21,0.01
2013-5-8,71,60,52,58,55,51,98,83,56,30.29,30.20,11,4,21,0.01
2013-5-9,57,53,50,57,53,50,99,99,95,30.20,29.97,8,3,15,0.18
2013-5-10,69,57,48,61,52,-100,100,88,65,30.02,29.95,7,2,15,0.06
2013-5-11,57,53,49,57,53,49,100,99,97,30.00,29.75,10,5,22,0.19
2013-5-12,57,54,44,57,54,-100,100,100,97,29.77,29.59,9,2,25,0.16
2013-5-13,54,47,39,43,34,28,97,62,38,30.06,29.74,9,4,21,0.09
2013-5-14,52,46,38,35,31,29,75,58,44,30.07,30.01,9,4,18,0.00
2013-5-15,60,48,39,46,33,24,98,59,27,30.06,29.73,13,6,25,0.28
2013-5-16,72,52,46,55,28,-100,99,73,29,29.82,29.62,9,4,19,0.28
2013-5-17,58,51,47,43,35,-100,83,63,40,30.26,29.82,12,6,29,0.00
2013-5-18,60,51,42,45,39,34,95,66,50,30.40,30.26,8,3,16,0.00
2013-5-19,61,49,42,48,44,40,98,84,60,30.44,30.31,7,4,15,0.00
2013-5-20,68,54,46,59,52,45,99,94,72,30.31,29.99,8,3,18,0.81
2013-5-21,54,49,46,53,49,46,100,99,98,30.13,30.03,7,3,14,0.30
2013-5-22,50,47,46,50,47,46,100,100,99,30.15,30.00,10,4,17,0.39
2013-5-23,61,54,46,61,54,46,100,99,96,30.03,29.88,7,3,17,0.04
2013-5-24,63,57,47,63,57,47,100,100,100,29.90,29.71,11,4,23,1.00
2013-5-25,47,46,44,47,45,44,100,99,98,29.88,29.75,15,7,28,0.46
2013-5-26,48,45,43,47,44,40,100,97,85,30.00,29.68,10,5,25,0.55
2013-5-27,62,51,39,43,37,32,94,64,33,30.22,29.99,11,6,25,0.01
2013-5-28,70,57,47,42,38,34,71,50,29,30.29,30.22,9,3,21,0.00
2013-5-29,54,51,46,54,49,38,100,93,57,30.28,30.06,9,3,17,0.19
2013-5-30,81,67,51,64,58,51,100,78,48,30.09,30.02,8,3,20,0.01
2013-5-31,88,79,71,67,63,58,68,58,45,30.09,29.91,8,3,23,0.00
2013-6-1,90,79,70,70,64,61,79,61,39,29.94,29.84,7,3,20,0.00
2013-6-2,85,75,69,70,65,-100,87,75,59,29.84,29.71,12,5,24,0.00
2013-9-14,65,59,52,59,55,50,99,89,72,30.05,29.73,6,3,14,0.51
2013-9-15,65,53,47,53,47,-100,97,85,59,30.16,30.05,6,2,16,0.01
2013-9-16,58,53,42,54,49,36,97,86,72,30.29,30.01,10,4,24,0.11
2013-9-17,61,49,39,48,40,35,85,72,53,30.44,30.28,8,4,19,0.01
2013-9-18,54,50,49,44,43,42,80,76,66,30.35,30.32,4,2,10,0.00
2013-9-19,73,65,56,55,50,46,73,58,42,30.15,30.06,5,2,13,0.00
2013-9-20,73,65,54,56,53,50,92,67,52,30.15,30.08,5,2,10,0.00
2013-9-21,63,58,51,60,56,50,99,94,76,30.09,29.85,12,5,20,0.00
2013-9-22,66,60,51,64,58,-100,99,92,83,29.85,29.64,10,6,25,0.47
2013-9-23,53,48,42,47,41,38,89,78,66,29.96,29.75,13,6,31,0.01
2013-9-24,49,46,43,44,42,39,94,84,77,29.96,29.86,10,4,25,0.07
2013-9-25,58,50,45,48,45,42,96,82,67,30.02,29.90,8,4,23,0.01
2013-9-26,60,53,46,51,48,44,93,83,70,30.18,30.01,9,4,19,0.00
2013-9-27,67,58,52,53,51,49,92,77,54,30.28,30.18,6,3,12,0.00
2013-9-28,70,61,53,55,51,48,88,70,50,30.39,30.31,6,2,11,0.00
2013-9-29,65,56,47,49,43,-100,97,66,46,30.32,30.17,6,3,13,0.00
2013-9-30,66,54,46,52,47,42,98,80,46,30.19,30.03,4,1,13,0.01
2013-10-2,74,69,63,59,55,48,70,60,51,29.91,29.78,8,4,21,0.00
2013-10-3,70,64,56,49,46,41,68,52,44,30.10,29.91,8,4,20,0.00
2013-10-4,66,62,55,52,47,37,76,59,48,30.14,30.07,5,2,13,0.00
2013-10-5,61,54,50,48,42,37,84,65,49,30.22,30.14,6,2,11,0.00
2013-10-6,56,49,42,47,38,33,98,69,46,30.35,30.21,7,3,15,0.08
2013-10-7,64,56,46,64,56,45,100,99,98,30.28,29.85,13,6,33,0.48
2013-10-8,61,53,46,61,45,37,100,76,55,30.44,29.86,9,4,25,0.20
2013-10-9,61,51,44,43,40,37,82,66,45,30.54,30.43,5,2,12,0.00
2013-10-10,66,58,47,49,45,38,83,64,41,30.42,30.25,6,2,12,0.00
2013-10-11,71,62,50,54,49,42,86,64,47,30.24,30.18,5,2,11,0.00
2013-10-12,61,52,49,53,48,46,97,87,74,30.47,30.24,8,3,18,0.00
2013-10-13,57,49,45,47,44,-100,96,83,66,30.53,30.45,5,1,9,0.00
2013-10-14,61,51,45,49,46,43,94,84,63,30.45,30.30,6,2,14,0.01
2013-10-15,63,55,49,52,50,47,95,84,63,30.34,30.26,5,2,10,0.01
2013-10-16,57,53,51,53,51,48,98,93,79,30.28,29.96,8,2,15,0.01
2013-10-17,66,56,52,56,53,51,99,91,63,29.96,29.77,4,1,12,0.00
2013-10-18,61,54,49,55,49,43,99,84,63,29.86,29.63,10,3,24,0.15
2013-10-19,61,52,46,48,42,37,92,70,48,29.97,29.83,8,4,17,0.01
2013-10-20,57,51,47,51,39,-100,98,69,37,29.98,29.71,11,4,26,0.04
2013-10-21,58,48,40,46,38,32,92,67,47,30.12,29.98,7,3,18,0.01
2013-10-22,59,51,42,51,48,39,96,88,66,30.05,29.74,11,4,21,0.12
2013-10-23,50,44,37,39,34,31,90,70,49,29.81,29.63,6,2,15,0.11
2013-10-24,47,41,36,36,30,25,82,65,44,29.83,29.63,10,4,21,0.00
2013-10-25,47,41,35,32,29,26,78,63,51,30.11,29.83,9,5,19,0.00
2013-10-26,46,39,32,36,30,25,78,69,55,30.15,29.92,10,4,21,0.00
2013-10-27,51,43,38,42,34,-100,97,75,57,30.03,29.83,12,3,22,0.05
2013-10-28,50,39,33,37,28,-100,86,68,55,30.37,30.02,11,5,24,0.02
2013-10-29,43,35,29,27,22,16,79,61,34,30.49,30.37,6,3,15,0.01
2013-10-30,43,39,33,28,24,20,75,57,42,30.40,30.22,7,2,15,0.00
2013-10-31,56,50,40,56,48,31,99,93,69,30.29,29.85,9,5,22,0.34
2013-11-1,62,58,55,60,56,51,99,94,81,29.84,29.37,12,6,30,0.69
2013-11-2,60,54,43,50,44,37,89,70,52,29.79,29.56,9,4,18,0.03
2013-11-3,42,34,28,37,23,-100,94,67,45,30.46,29.80,12,6,28,0.07
2013-11-4,37,31,25,20,18,16,75,59,43,30.75,30.46,9,4,20,0.00
2013-11-5,43,39,37,34,31,25,86,73,58,30.76,30.56,8,3,18,0.00
2013-11-6,51,44,37,46,40,33,96,87,73,30.54,30.04,10,4,20,0.00
2013-11-7,56,49,38,54,46,29,96,90,71,30.04,29.67,9,5,24,0.14
2013-11-8,41,36,33,30,26,23,74,66,52,29.98,29.76,9,5,24,0.04
2013-11-9,39,34,32,25,20,-100,74,58,47,30.16,29.99,11,5,27,0.00
2013-11-10,40,36,30,39,33,20,97,90,62,30.14,29.75,6,2,19,0.05
2013-11-11,40,38,35,35,31,27,95,78,64,30.03,29.77,9,4,21,0.01
2013-11-12,40,30,25,31,20,14,74,65,53,30.11,29.86,12,7,30,0.00
2013-11-13,29,25,21,15,13,11,69,60,48,30.25,30.10,9,5,23,0.00
2013-11-14,43,34,24,30,23,13,71,64,56,30.15,30.03,11,4,24,0.00
2013-11-15,46,45,39,29,26,24,62,48,41,30.19,30.15,4,2,11,0.00
2013-11-16,50,46,43,36,27,-100,66,51,48,30.37,30.32,3,1,8,0.00
2013-11-17,49,43,35,48,41,34,98,93,79,30.42,30.02,9,4,18,0.05
2013-11-18,59,53,47,56,48,32,99,84,60,30.01,29.51,13,6,33,0.59
2013-11-19,46,34,29,33,21,16,66,59,52,30.21,29.59,16,9,39,0.02
2013-11-20,34,29,25,18,12,8,63,49,34,30.67,30.21,12,8,30,0.00
2013-11-21,47,35,25,25,15,7,65,45,20,30.68,30.40,8,3,18,0.00
2013-11-22,40,35,32,31,23,13,94,64,36,30.38,29.82,5,2,12,0.00
2013-11-23,35,31,25,34,22,-100,98,70,47,29.82,29.70,18,8,36,0.05
2013-11-24,25,19,16,18,6,2,74,56,45,29.99,29.66,20,13,51,0.02
2013-11-25,25,18,12,9,3,-1,65,50,34,30.37,29.99,14,6,33,0.01
2013-11-26,30,28,24,29,23,11,97,84,53,30.37,30.25,5,2,16,0.00
2013-11-27,56,47,30,56,47,29,99,99,97,30.25,29.20,24,10,43,2.64
2013-11-28,36,26,17,36,18,7,99,72,51,30.41,29.26,14,5,28,0.27
2013-11-29,21,17,15,10,8,4,78,66,49,30.80,30.41,9,5,20,0.01
2013-11-30,25,19,14,20,9,-100,83,68,46,30.88,30.51,7,2,15,0.01
2013-12-1,32,30,25,32,29,21,98,93,81,30.50,30.16,5,1,12,0.09
2013-12-2,37,34,32,37,34,32,99,99,98,30.16,29.98,7,3,13,0.63
2013-12-3,36,34,32,36,34,30,99,99,93,29.98,29.89,12,5,24,0.02
2013-12-4,38,33,29,30,27,25,93,81,67,30.25,29.89,13,6,26,0.00
2013-12-5,46,35,29,45,34,25,99,94,86,30.33,29.97,9,4,18,0.03
2013-12-6,47,40,34,47,37,25,99,90,69,30.12,29.91,9,4,20,0.23
2013-12-7,34,29,21,25,15,-100,75,57,47,30.43,30.11,12,7,30,0.01
2013-12-8,23,21,18,11,8,5,67,57,48,30.65,30.43,10,4,23,0.00
2013-12-9,27,21,17,26,16,7,96,81,62,30.62,29.90,10,4,16,0.00
2013-12-10,24,22,20,23,21,19,96,95,95,29.91,29.88,0,0,5,0.00
2013-12-16,11,5,1,-1,-5,-8,66,62,58,30.24,30.04,9,6,25,0.00
2013-12-17,14,6,-2,12,-2,-10,92,70,54,30.37,30.13,7,4,16,0.00
2013-12-18,21,15,9,19,13,7,94,92,89,30.13,29.91,9,6,19,0.00
2013-12-19,31,26,21,25,22,18,91,85,76,30.13,29.98,6,2,13,0.00
2013-12-20,36,33,30,34,30,24,98,90,73,30.19,29.97,6,1,11,0.05
2013-12-21,37,30,25,37,28,-100,99,97,96,30.02,29.89,5,1,14,0.05
2013-12-22,29,26,23,29,25,22,98,97,96,30.15,29.94,8,3,14,0.02
2013-12-23,31,28,24,31,27,23,99,98,97,30.18,30.04,0,0,0,0.00
2013-12-24,20,16,10,18,14,7,93,92,89,30.21,30.10,0,0,0,0.00
2013-12-25,14,9,4,12,6,1,91,88,85,30.63,30.21,0,0,0,0.00
2013-12-26,27,18,12,26,16,9,97,94,89,30.60,30.14,0,0,0,0.00
2013-12-27,27,23,17,25,21,15,95,92,90,30.25,30.17,0,0,0,0.13
2013-12-28,31,26,20,29,23,-100,96,92,90,30.22,29.99,0,0,0,0.01
2013-12-29,34,30,20,33,29,18,98,96,89,30.07,29.58,0,0,0,0.01
2013-12-30,25,15,1,24,14,-3,97,92,84,30.22,29.56,0,0,0,0.01
2013-12-31,7,2,-1,4,-1,-5,90,85,81,30.23,30.11,0,0,0,0.00
2014-1-1,14,9,0,10,4,-5,86,80,76,30.49,30.18,0,0,0,0.00
2014-1-2,0,-7,-10,-4,-11,-14,84,82,78,30.53,30.10,0,0,0,0.00